createdAt,value
2023-03-12T00:01:34.594Z,9.30
2023-03-12T00:03:56.458Z,9.03
2023-03-12T00:06:18.056Z,9.13
2023-03-12T00:08:40.095Z,9.27
2023-03-12T00:11:07.263Z,9.30
2023-03-12T00:13:28.476Z,8.60
2023-03-12T00:15:50.282Z,8.57
2023-03-12T00:18:11.592Z,9.93
2023-03-12T00:20:33.026Z,9.33
2023-03-12T00:22:54.467Z,9.53
2023-03-12T00:25:17.505Z,9.40
2023-03-12T00:27:40.123Z,9.10
2023-03-12T00:30:02.676Z,9.20
2023-03-12T00:32:24.238Z,9.37
2023-03-12T00:34:46.343Z,9.30
2023-03-12T00:37:08.032Z,9.77
2023-03-12T00:39:29.159Z,9.30
2023-03-12T00:41:51.069Z,9.40
2023-03-12T00:44:14.010Z,9.03
2023-03-12T00:46:36.125Z,9.70
2023-03-12T00:48:57.648Z,8.67
2023-03-12T00:51:19.048Z,8.53
2023-03-12T00:53:40.638Z,8.23
2023-03-12T00:56:02.353Z,8.93
2023-03-12T00:58:23.477Z,8.87
2023-03-12T01:00:47.603Z,8.53
2023-03-12T01:03:08.810Z,10.00
2023-03-12T01:05:30.056Z,10.07
2023-03-12T01:07:51.173Z,9.73
2023-03-12T01:10:14.342Z,9.77
2023-03-12T01:12:36.140Z,9.80
2023-03-12T01:14:57.467Z,10.30
2023-03-12T01:17:20.850Z,9.30
2023-03-12T01:19:42.686Z,8.83
2023-03-12T01:22:04.355Z,10.13
2023-03-12T01:24:26.629Z,10.00
2023-03-12T01:26:48.140Z,9.30
2023-03-12T01:29:09.656Z,9.60
2023-03-12T01:31:31.259Z,9.70
2023-03-12T01:33:54.248Z,9.80
2023-03-12T01:36:18.123Z,9.60
2023-03-12T01:38:39.302Z,9.37
2023-03-12T01:41:01.038Z,10.17
2023-03-12T01:43:27.603Z,10.20
2023-03-12T01:46:01.367Z,10.20
2023-03-12T01:48:22.829Z,10.37
2023-03-12T01:50:46.119Z,9.23
2023-03-12T01:53:07.293Z,10.23
2023-03-12T01:55:28.452Z,10.03
2023-03-12T01:57:52.397Z,10.00
2023-03-12T02:00:14.338Z,9.87
2023-03-12T02:02:37.190Z,10.03
2023-03-12T02:05:05.090Z,10.10
2023-03-12T02:07:27.894Z,9.60
2023-03-12T02:09:50.955Z,10.57
2023-03-12T02:12:12.530Z,9.83
2023-03-12T02:14:33.967Z,9.83
2023-03-12T02:16:56.522Z,9.43
2023-03-12T02:19:20.143Z,9.50
2023-03-12T02:21:42.973Z,10.27
2023-03-12T02:24:08.199Z,9.73
2023-03-12T02:26:32.264Z,9.37
2023-03-12T02:28:54.390Z,9.27
2023-03-12T02:31:16.539Z,9.60
2023-03-12T02:33:37.962Z,9.43
2023-03-12T02:35:59.386Z,9.43
2023-03-12T02:38:42.678Z,9.50
2023-03-12T02:41:06.110Z,9.67
2023-03-12T02:43:29.590Z,9.23
2023-03-12T02:45:51.147Z,9.63
2023-03-12T02:48:12.584Z,9.03
2023-03-12T02:50:33.939Z,9.10
2023-03-12T02:52:55.303Z,9.30
2023-03-12T02:55:16.816Z,9.20
2023-03-12T02:57:38.304Z,9.10
2023-03-12T03:00:01.130Z,9.57
2023-03-12T03:02:22.638Z,9.37
2023-03-12T03:04:44.010Z,9.43
2023-03-12T03:07:06.056Z,9.13
2023-03-12T03:09:27.570Z,9.00
2023-03-12T03:11:48.880Z,8.87
2023-03-12T03:14:10.225Z,9.37
2023-03-12T03:16:34.148Z,9.77
2023-03-12T03:18:56.347Z,9.13
2023-03-12T03:21:18.064Z,9.00
2023-03-12T03:23:39.523Z,8.97
2023-03-12T03:26:01.238Z,8.63
2023-03-12T03:28:22.979Z,8.80
2023-03-12T03:30:44.369Z,9.47
2023-03-12T03:33:07.292Z,9.23
2023-03-12T03:35:29.615Z,9.07
2023-03-12T03:37:51.116Z,9.37
2023-03-12T03:40:13.541Z,9.50
2023-03-12T03:42:34.993Z,9.77
2023-03-12T03:44:56.382Z,9.00
2023-03-12T03:47:17.275Z,9.50
2023-03-12T03:49:40.052Z,9.00
2023-03-12T03:52:02.362Z,9.00
2023-03-12T03:54:23.534Z,8.97
2023-03-12T03:56:46.123Z,9.30
2023-03-12T03:59:07.489Z,9.27
2023-03-12T04:01:29.130Z,9.40
2023-03-12T04:03:50.427Z,9.10
2023-03-12T04:06:13.783Z,8.50
2023-03-12T04:08:36.231Z,9.23
2023-03-12T04:10:57.494Z,8.87
2023-03-12T04:13:18.536Z,8.70
2023-03-12T04:15:39.992Z,8.67
2023-03-12T04:18:03.042Z,8.27
2023-03-12T04:20:24.850Z,9.13
2023-03-12T04:22:47.282Z,8.77
2023-03-12T04:25:09.206Z,8.93
2023-03-12T04:27:31.325Z,8.63
2023-03-12T04:29:52.544Z,9.03
2023-03-12T04:32:14.189Z,8.50
2023-03-12T04:34:35.625Z,8.90
2023-03-12T04:36:57.122Z,8.97
2023-03-12T04:39:20.380Z,8.90
2023-03-12T04:41:42.129Z,8.70
2023-03-12T04:44:03.515Z,9.00
2023-03-12T04:46:24.711Z,9.23
2023-03-12T04:48:47.224Z,8.83
2023-03-12T04:51:08.346Z,9.30
2023-03-12T04:53:30.727Z,9.00
2023-03-12T04:55:53.693Z,9.27
2023-03-12T04:58:15.565Z,8.67
2023-03-12T05:00:36.811Z,7.67
2023-03-12T05:02:57.954Z,8.30
2023-03-12T05:05:19.165Z,7.80
2023-03-12T05:07:41.082Z,9.00
2023-03-12T05:10:02.341Z,7.90
2023-03-12T05:12:26.033Z,8.67
2023-03-12T05:14:47.447Z,8.70
2023-03-12T05:17:08.807Z,8.23
2023-03-12T05:19:30.383Z,7.77
2023-03-12T05:21:51.821Z,7.00
2023-03-12T05:24:13.793Z,7.40
2023-03-12T05:26:35.414Z,7.80
2023-03-12T05:28:58.889Z,6.97
2023-03-12T05:31:20.382Z,8.30
2023-03-12T05:33:42.259Z,7.53
2023-03-12T05:36:03.368Z,7.80
2023-03-12T05:38:24.540Z,8.27
2023-03-12T05:40:51.941Z,8.03
2023-03-12T05:43:13.280Z,8.37
2023-03-12T05:45:36.715Z,8.23
2023-03-12T05:47:58.574Z,8.20
2023-03-12T05:50:20.000Z,8.53
2023-03-12T05:52:41.324Z,9.50
2023-03-12T05:55:02.339Z,8.43
2023-03-12T05:57:23.710Z,7.50
2023-03-12T05:59:45.788Z,8.60
2023-03-12T06:02:08.606Z,8.03
2023-03-12T06:04:29.606Z,7.07
2023-03-12T06:06:51.771Z,6.40
2023-03-12T06:09:12.932Z,7.17
2023-03-12T06:11:35.267Z,6.67
2023-03-12T06:13:57.409Z,6.80
2023-03-12T06:16:19.311Z,6.80
2023-03-12T06:18:42.146Z,7.03
2023-03-12T06:21:10.763Z,6.87
2023-03-12T06:23:31.814Z,7.20
2023-03-12T06:25:52.878Z,7.30
2023-03-12T06:28:14.124Z,7.13
2023-03-12T06:30:35.637Z,6.93
2023-03-12T06:32:57.334Z,7.80
2023-03-12T06:35:20.727Z,6.90
2023-03-12T06:37:42.572Z,7.40
2023-03-12T06:40:07.398Z,7.03
2023-03-12T06:42:28.754Z,8.40
2023-03-12T06:44:50.234Z,7.70
2023-03-12T06:47:11.429Z,6.80
2023-03-12T06:49:33.906Z,6.73
2023-03-12T06:51:57.076Z,6.73
2023-03-12T06:54:18.585Z,6.77
2023-03-12T06:56:40.829Z,7.93
2023-03-12T06:59:02.286Z,11.93
2023-03-12T07:01:23.714Z,9.37
2023-03-12T07:03:45.445Z,8.30
2023-03-12T07:06:13.418Z,8.83
2023-03-12T07:08:35.850Z,7.77
2023-03-12T07:10:57.383Z,7.93
2023-03-12T07:13:20.376Z,7.53
2023-03-12T07:15:42.539Z,8.13
2023-03-12T07:18:05.626Z,8.10
2023-03-12T07:20:27.112Z,8.60
2023-03-12T07:22:48.202Z,8.50
2023-03-12T07:25:12.576Z,8.20
2023-03-12T07:27:34.008Z,10.33
2023-03-12T07:29:55.748Z,12.33
2023-03-12T07:32:17.245Z,12.60
2023-03-12T07:34:38.790Z,11.07
2023-03-12T07:37:00.741Z,9.97
2023-03-12T07:39:21.969Z,8.87
2023-03-12T07:41:45.518Z,8.53
2023-03-12T07:44:07.099Z,8.13
2023-03-12T07:46:28.579Z,8.23
2023-03-12T07:48:49.798Z,8.33
2023-03-12T07:51:11.321Z,9.30
2023-03-12T07:53:32.610Z,8.60
2023-03-12T07:55:54.918Z,8.90
2023-03-12T07:58:18.147Z,8.47
2023-03-12T08:00:40.035Z,8.73
2023-03-12T08:03:02.013Z,7.70
2023-03-12T08:05:24.971Z,8.23
2023-03-12T08:07:46.650Z,8.13
2023-03-12T08:10:08.828Z,8.60
2023-03-12T08:12:30.469Z,8.33
2023-03-12T08:14:53.450Z,8.33
2023-03-12T08:17:14.347Z,8.10
2023-03-12T08:19:35.800Z,8.20
2023-03-12T08:21:57.971Z,8.23
2023-03-12T08:24:19.066Z,9.30
2023-03-12T08:26:40.338Z,9.00
2023-03-12T08:29:01.585Z,8.67
2023-03-12T08:31:23.900Z,8.43
2023-03-12T08:33:46.958Z,8.13
2023-03-12T08:36:08.936Z,8.33
2023-03-12T08:38:30.419Z,7.80
2023-03-12T08:40:56.131Z,7.87
2023-03-12T08:43:17.087Z,8.73
2023-03-12T08:45:38.470Z,9.57
2023-03-12T08:48:01.172Z,11.30
2023-03-12T08:50:22.946Z,9.90
2023-03-12T08:52:44.654Z,9.53
2023-03-12T08:55:06.321Z,10.97
2023-03-12T08:57:27.496Z,9.90
2023-03-12T08:59:49.120Z,10.27
2023-03-12T09:02:12.104Z,10.03
2023-03-12T09:04:34.664Z,10.53
2023-03-12T09:06:56.095Z,10.70
2023-03-12T09:09:17.568Z,9.23
2023-03-12T09:11:41.573Z,9.87
2023-03-12T09:14:39.493Z,10.27
2023-03-12T09:16:44.399Z,9.90
2023-03-12T09:19:05.894Z,10.13
2023-03-12T09:21:28.766Z,10.03
2023-03-12T09:23:50.006Z,10.00
2023-03-12T09:26:11.468Z,12.77
2023-03-12T09:28:32.597Z,10.20
2023-03-12T09:30:54.062Z,9.70
2023-03-12T09:33:16.177Z,9.30
2023-03-12T09:35:37.810Z,10.30
2023-03-12T09:38:00.469Z,11.63
2023-03-12T09:40:22.895Z,10.93
2023-03-12T09:42:47.438Z,11.53
2023-03-12T09:45:10.495Z,10.67
2023-03-12T09:47:33.058Z,11.37
2023-03-12T09:49:57.045Z,11.13
2023-03-12T09:52:20.727Z,10.70
2023-03-12T09:54:47.563Z,11.73
2023-03-12T09:57:11.410Z,11.70
2023-03-12T09:59:32.664Z,12.27
2023-03-12T10:01:56.056Z,11.57
2023-03-12T10:04:21.322Z,11.87
2023-03-12T10:06:47.199Z,9.87
2023-03-12T10:09:17.978Z,10.83
2023-03-12T10:11:44.571Z,11.20
2023-03-12T10:14:23.505Z,10.07
2023-03-12T10:16:50.715Z,12.00
2023-03-12T10:19:28.997Z,11.87
2023-03-12T10:21:52.874Z,11.53
2023-03-12T10:24:35.820Z,11.67
2023-03-12T10:26:59.698Z,11.37
2023-03-12T10:29:22.479Z,10.80
2023-03-12T10:31:50.185Z,11.00
2023-03-12T10:34:16.428Z,9.97
2023-03-12T10:36:39.212Z,9.90
2023-03-12T10:39:00.335Z,9.50
2023-03-12T10:41:22.536Z,9.60
2023-03-12T10:43:45.638Z,9.33
2023-03-12T10:46:11.718Z,9.03
2023-03-12T10:48:33.065Z,9.70
2023-03-12T10:51:04.419Z,9.27
2023-03-12T10:53:30.062Z,9.93
2023-03-12T10:56:01.860Z,9.87
2023-03-12T10:58:24.012Z,9.17
2023-03-12T11:00:56.758Z,8.70
2023-03-12T11:03:21.509Z,9.50
2023-03-12T11:05:48.563Z,10.67
2023-03-12T11:08:20.060Z,10.07
2023-03-12T11:10:45.454Z,10.30
2023-03-12T11:13:10.489Z,9.40
2023-03-12T11:15:37.930Z,9.70
2023-03-12T11:18:25.584Z,10.23
2023-03-12T11:20:46.820Z,9.50
2023-03-12T11:23:14.462Z,9.57
2023-03-12T11:25:35.424Z,9.67
2023-03-12T11:27:57.720Z,10.07
2023-03-12T11:30:23.194Z,11.23
2023-03-12T11:32:46.506Z,9.40
2023-03-12T11:35:12.503Z,10.00
2023-03-12T11:37:40.666Z,9.07
2023-03-12T11:40:10.757Z,8.50
2023-03-12T11:42:37.855Z,8.57
2023-03-12T11:45:04.972Z,8.50
2023-03-12T11:47:40.986Z,8.70
2023-03-12T11:50:07.299Z,8.23
2023-03-12T11:52:34.768Z,7.43
2023-03-12T11:55:11.219Z,6.53
2023-03-12T11:57:37.689Z,5.67
2023-03-12T12:00:07.053Z,4.63
2023-03-12T12:02:38.180Z,5.80
2023-03-12T12:05:14.662Z,5.00
2023-03-12T12:07:45.422Z,4.80
2023-03-12T12:10:11.662Z,5.10
2023-03-12T12:12:41.532Z,2.63
2023-03-12T12:15:11.814Z,2.70
2023-03-12T12:17:42.102Z,2.27
2023-03-12T12:20:19.076Z,1.30
2023-03-12T12:22:47.460Z,1.20
2023-03-12T12:25:22.644Z,1.23
2023-03-12T12:27:48.463Z,2.20
2023-03-12T12:30:19.682Z,1.53
2023-03-12T12:33:01.142Z,1.53
2023-03-12T12:35:28.316Z,1.60
2023-03-12T12:37:54.522Z,1.73
2023-03-12T12:40:19.406Z,2.00
2023-03-12T12:42:45.080Z,1.83
2023-03-12T12:45:07.174Z,2.10
2023-03-12T12:47:33.293Z,2.03
2023-03-12T12:49:57.487Z,1.70
2023-03-12T12:52:20.210Z,1.90
2023-03-12T12:54:49.414Z,2.40
2023-03-12T12:57:13.026Z,2.03
2023-03-12T12:59:37.750Z,1.77
2023-03-12T13:01:59.378Z,1.60
2023-03-12T13:04:25.129Z,1.43
2023-03-12T13:07:01.138Z,1.60
2023-03-12T13:09:23.496Z,1.90
2023-03-12T13:11:47.841Z,1.77
2023-03-12T13:14:14.829Z,2.40
2023-03-12T13:16:37.725Z,2.37
2023-03-12T13:18:59.596Z,1.90
2023-03-12T13:21:25.174Z,1.97
2023-03-12T13:23:51.671Z,1.70
2023-03-12T13:26:19.509Z,3.37
2023-03-12T13:29:05.971Z,2.47
2023-03-12T13:31:37.572Z,2.80
2023-03-12T13:33:59.606Z,4.27
2023-03-12T13:36:24.360Z,4.03
2023-03-12T13:38:54.278Z,2.37
2023-03-12T13:41:31.875Z,2.40
2023-03-12T13:43:54.622Z,1.60
2023-03-12T13:46:27.860Z,1.80
2023-03-12T13:48:50.286Z,2.20
2023-03-12T13:51:13.022Z,1.50
2023-03-12T13:53:36.093Z,1.90
2023-03-12T13:56:02.411Z,1.63
2023-03-12T13:58:23.689Z,2.60
2023-03-12T14:00:47.473Z,2.17
2023-03-12T14:03:12.924Z,2.73
2023-03-12T14:05:44.235Z,3.03
2023-03-12T14:08:12.734Z,2.90
2023-03-12T14:10:38.067Z,1.47
2023-03-12T14:13:04.299Z,1.70
2023-03-12T14:15:29.608Z,1.47
2023-03-12T14:17:55.272Z,2.00
2023-03-12T14:20:18.293Z,1.50
2023-03-12T14:22:42.486Z,1.83
2023-03-12T14:25:06.186Z,1.63
2023-03-12T14:27:28.839Z,1.47
2023-03-12T14:29:53.071Z,1.50
2023-03-12T14:32:16.449Z,1.67
2023-03-12T14:34:41.548Z,1.97
2023-03-12T14:37:05.867Z,1.53
2023-03-12T14:39:31.313Z,1.73
2023-03-12T14:41:55.187Z,1.50
2023-03-12T14:44:21.919Z,1.50
2023-03-12T14:46:47.256Z,1.80
2023-03-12T14:49:10.678Z,1.77
2023-03-12T14:51:36.614Z,1.57
2023-03-12T14:54:02.931Z,1.60
2023-03-12T14:56:29.272Z,2.00
2023-03-12T14:58:50.805Z,1.40
2023-03-12T15:01:13.956Z,1.63
2023-03-12T15:03:41.691Z,1.80
2023-03-12T15:06:03.032Z,1.73
2023-03-12T15:08:25.115Z,1.50
2023-03-12T15:10:49.203Z,1.93
2023-03-12T15:13:13.856Z,1.73
2023-03-12T15:15:37.374Z,1.70
2023-03-12T15:17:59.332Z,2.47
2023-03-12T15:20:22.125Z,1.80
2023-03-12T15:22:43.655Z,2.00
2023-03-12T15:25:16.040Z,1.87
2023-03-12T15:27:37.195Z,1.93
2023-03-12T15:30:00.626Z,1.70
2023-03-12T15:32:24.684Z,1.83
2023-03-12T15:34:46.020Z,1.80
2023-03-12T15:37:20.925Z,2.80
2023-03-12T15:39:42.161Z,1.93
2023-03-12T15:42:08.475Z,1.90
2023-03-12T15:44:30.881Z,2.30
2023-03-12T15:46:55.479Z,3.00
2023-03-12T15:49:21.674Z,1.90
2023-03-12T15:51:42.667Z,2.40
2023-03-12T15:54:05.490Z,2.13
2023-03-12T15:56:26.879Z,2.30
2023-03-12T15:58:48.044Z,2.03
2023-03-12T16:01:10.960Z,2.53
2023-03-12T16:03:33.750Z,3.63
2023-03-12T16:05:57.162Z,3.20
2023-03-12T16:08:20.718Z,2.20
2023-03-12T16:10:42.014Z,2.03
2023-03-12T16:13:04.936Z,2.60
2023-03-12T16:15:28.896Z,2.03
2023-03-12T16:17:50.107Z,3.20
2023-03-12T16:20:15.089Z,2.80
2023-03-12T16:22:36.348Z,2.20
2023-03-12T16:24:57.863Z,2.17
2023-03-12T16:27:31.637Z,2.37
2023-03-12T16:29:53.793Z,2.30
2023-03-12T16:32:16.379Z,3.10
2023-03-12T16:34:37.907Z,3.43
2023-03-12T16:37:01.071Z,3.07
2023-03-12T16:39:23.033Z,2.90
2023-03-12T16:41:44.399Z,2.80
2023-03-12T16:44:06.512Z,2.60
2023-03-12T16:46:30.674Z,3.17
2023-03-12T16:48:53.547Z,2.63
2023-03-12T16:51:15.930Z,2.93
2023-03-12T16:53:38.921Z,2.30
2023-03-12T16:56:01.356Z,2.70
2023-03-12T16:58:22.906Z,2.60
2023-03-12T17:00:44.703Z,3.03
2023-03-12T17:03:07.635Z,3.00
2023-03-12T17:05:30.270Z,2.10
2023-03-12T17:07:51.880Z,2.90
2023-03-12T17:10:16.543Z,2.40
2023-03-12T17:12:38.896Z,2.90
2023-03-12T17:15:01.155Z,2.87
2023-03-12T17:17:23.975Z,2.50
2023-03-12T17:19:45.391Z,2.90
2023-03-12T17:22:06.866Z,3.70
2023-03-12T17:24:28.668Z,2.90
2023-03-12T17:26:53.439Z,3.47
2023-03-12T17:29:15.183Z,4.20
2023-03-12T17:31:37.662Z,4.50
2023-03-12T17:33:58.983Z,4.43
2023-03-12T17:36:20.423Z,4.10
2023-03-12T17:38:41.714Z,4.03
2023-03-12T17:41:04.675Z,3.70
2023-03-12T17:43:27.619Z,2.90
2023-03-12T17:45:48.859Z,2.50
2023-03-12T17:48:10.360Z,2.43
2023-03-12T17:50:31.837Z,2.40
2023-03-12T17:52:52.888Z,2.40
2023-03-12T17:55:14.578Z,2.70
2023-03-12T17:57:35.849Z,3.63
2023-03-12T17:59:58.634Z,10.70
2023-03-12T18:02:20.523Z,22.93
2023-03-12T18:04:42.162Z,18.63
2023-03-12T18:07:04.544Z,25.70
2023-03-12T18:09:25.940Z,68.00
2023-03-12T18:11:47.304Z,19.30
2023-03-12T18:14:08.678Z,17.20
2023-03-12T18:16:31.308Z,57.50
2023-03-12T18:18:53.045Z,27.43
2023-03-12T18:21:14.343Z,24.83
2023-03-12T18:23:35.876Z,12.93
2023-03-12T18:25:57.514Z,18.87
2023-03-12T18:28:18.659Z,22.73
2023-03-12T18:30:40.143Z,14.97
2023-03-12T18:33:02.894Z,38.53
2023-03-12T18:35:28.668Z,58.10
2023-03-12T18:37:51.936Z,106.53
2023-03-12T18:40:13.355Z,88.90
2023-03-12T18:42:34.477Z,44.53
2023-03-12T18:44:55.733Z,129.13
2023-03-12T18:47:17.191Z,55.60
2023-03-12T18:49:40.054Z,19.03
2023-03-12T18:52:01.494Z,54.40
2023-03-12T18:54:24.676Z,66.00
2023-03-12T18:56:46.786Z,19.77
2023-03-12T18:59:07.733Z,9.83
2023-03-12T19:01:29.111Z,25.83
2023-03-12T19:03:50.269Z,12.50
2023-03-12T19:06:14.165Z,32.00
2023-03-12T19:08:37.622Z,14.63
2023-03-12T19:10:59.147Z,12.13
2023-03-12T19:13:20.564Z,14.93
2023-03-12T19:15:42.237Z,18.83
2023-03-12T19:18:03.381Z,15.93
2023-03-12T19:20:24.827Z,7.93
2023-03-12T19:22:47.450Z,5.97
2023-03-12T19:25:09.301Z,23.50
2023-03-12T19:27:30.668Z,8.60
2023-03-12T19:29:51.997Z,4.20
2023-03-12T19:32:13.207Z,8.27
2023-03-12T19:34:34.460Z,21.43
2023-03-12T19:36:55.596Z,25.47
2023-03-12T19:39:21.560Z,34.90
2023-03-12T19:41:43.271Z,12.63
2023-03-12T19:44:04.731Z,26.17
2023-03-12T19:46:26.213Z,22.03
2023-03-12T19:48:47.796Z,39.57
2023-03-12T19:51:10.506Z,12.50
2023-03-12T19:53:31.640Z,22.80
2023-03-12T19:55:54.363Z,42.50
2023-03-12T19:58:15.804Z,72.67
2023-03-12T20:00:36.895Z,22.23
2023-03-12T20:02:59.581Z,7.17
2023-03-12T20:05:20.962Z,6.03
2023-03-12T20:07:42.094Z,5.10
2023-03-12T20:10:03.715Z,9.00
2023-03-12T20:12:26.396Z,7.53
2023-03-12T20:14:48.314Z,14.07
2023-03-12T20:17:09.938Z,12.80
2023-03-12T20:19:31.038Z,5.90
2023-03-12T20:21:52.563Z,12.63
2023-03-12T20:24:14.733Z,9.93
2023-03-12T20:26:35.966Z,17.07
2023-03-12T20:29:01.146Z,16.67
2023-03-12T20:31:22.557Z,6.47
2023-03-12T20:33:43.769Z,11.00
2023-03-12T20:36:06.033Z,7.20
2023-03-12T20:38:27.349Z,6.00
2023-03-12T20:40:48.872Z,4.97
2023-03-12T20:43:10.225Z,5.57
2023-03-12T20:45:33.511Z,5.20
2023-03-12T20:47:54.720Z,4.10
2023-03-12T20:50:16.129Z,5.37
2023-03-12T20:52:37.488Z,4.60
2023-03-12T20:54:59.041Z,3.60
2023-03-12T20:57:20.678Z,3.50
2023-03-12T20:59:42.440Z,4.27
2023-03-12T21:02:05.714Z,3.50
2023-03-12T21:04:27.235Z,3.70
2023-03-12T21:06:51.535Z,3.83
2023-03-12T21:09:13.320Z,4.10
2023-03-12T21:11:35.530Z,3.80
2023-03-12T21:13:57.177Z,3.73
2023-03-12T21:16:18.398Z,4.27
2023-03-12T21:18:41.028Z,3.70
2023-03-12T21:21:03.611Z,3.93
2023-03-12T21:23:24.750Z,3.93
2023-03-12T21:25:46.450Z,3.60
2023-03-12T21:28:08.595Z,3.80
2023-03-12T21:30:30.535Z,3.80
2023-03-12T21:32:51.781Z,3.57
2023-03-12T21:35:14.123Z,3.70
2023-03-12T21:37:35.664Z,3.47
2023-03-12T21:40:01.429Z,3.60
2023-03-12T21:42:22.586Z,4.20
2023-03-12T21:44:44.267Z,4.47
2023-03-12T21:47:05.728Z,3.63
2023-03-12T21:49:27.354Z,3.53
2023-03-12T21:51:50.619Z,3.90
2023-03-12T21:54:11.927Z,3.67
2023-03-12T21:56:32.834Z,3.57
2023-03-12T21:58:53.970Z,3.07
2023-03-12T22:01:16.630Z,4.10
2023-03-12T22:03:38.227Z,3.60
2023-03-12T22:06:00.482Z,3.83
2023-03-12T22:08:23.807Z,3.23
2023-03-12T22:10:45.496Z,3.47
2023-03-12T22:13:06.787Z,3.30
2023-03-12T22:15:28.181Z,5.93
2023-03-12T22:17:49.205Z,4.97
2023-03-12T22:20:12.956Z,4.33
2023-03-12T22:22:35.390Z,4.93
2023-03-12T22:24:58.887Z,4.13
2023-03-12T22:27:20.379Z,5.63
2023-03-12T22:29:43.500Z,6.40
2023-03-12T22:32:04.799Z,4.90
2023-03-12T22:34:26.890Z,4.57
2023-03-12T22:36:48.247Z,5.17
2023-03-12T22:39:09.591Z,4.57
2023-03-12T22:41:32.448Z,4.10
2023-03-12T22:43:54.176Z,3.20
2023-03-12T22:46:17.099Z,3.93
2023-03-12T22:48:38.268Z,3.40
2023-03-12T22:51:00.356Z,5.03
2023-03-12T22:53:21.966Z,6.50
2023-03-12T22:55:43.086Z,8.03
2023-03-12T22:58:05.989Z,8.23
2023-03-12T23:00:27.596Z,8.07
2023-03-12T23:02:49.116Z,6.53
2023-03-12T23:05:10.774Z,8.70
2023-03-12T23:07:31.947Z,9.57
2023-03-12T23:09:53.162Z,13.20
2023-03-12T23:12:14.485Z,11.83
2023-03-12T23:14:37.147Z,11.37
2023-03-12T23:17:00.225Z,11.20
2023-03-12T23:19:22.218Z,10.93
2023-03-12T23:21:43.499Z,10.40
2023-03-12T23:24:05.599Z,8.53
2023-03-12T23:26:27.698Z,7.83
2023-03-12T23:28:51.118Z,7.40
2023-03-12T23:31:14.964Z,6.53
2023-03-12T23:33:36.520Z,6.70
2023-03-12T23:35:58.727Z,6.33
2023-03-12T23:38:20.108Z,6.03
2023-03-12T23:40:41.516Z,5.67
2023-03-12T23:43:02.904Z,6.17
2023-03-12T23:45:24.292Z,5.57
2023-03-12T23:47:46.999Z,5.63
2023-03-12T23:50:08.518Z,5.43
2023-03-12T23:52:29.725Z,5.33
2023-03-12T23:54:52.205Z,4.90
2023-03-12T23:57:13.495Z,5.20
2023-03-12T23:59:34.830Z,5.07
